Time;durP1;ratioP1;P1;durP2;ratioP2;P2;SDS_P1;SDS_P2;PMS_P1;PMS_P2;Temp;Humidity;BMP_temperature;BMP_pressure;BME280_temperature;BME280_humidity;BME280_pressure;Samples;Min_cycle;Max_cycle;Signal;HPM_P1;HPM_P2
2021/12/07 00:00:57;;;;;;;7.97;4.78;;;;;;;;;;4978953;28;20033;-63
2021/12/07 00:03:42;;;;;;;8.02;4.22;;;;;;;;;;4985787;28;20367;-71
2021/12/07 00:06:28;;;;;;;6.78;4.18;;;;;;;;;;4980051;28;20044;-66
2021/12/07 00:09:15;;;;;;;6.68;4.10;;;;;;;;;;4989472;28;20495;-65
2021/12/07 00:12:04;;;;;;;6.88;4.15;;;;;;;;;;4976260;28;20026;-66
2021/12/07 00:14:51;;;;;;;6.50;4.47;;;;;;;;;;4991497;28;20041;-67
2021/12/07 00:17:37;;;;;;;6.47;3.92;;;;;;;;;;4970639;28;20038;-68
2021/12/07 00:20:23;;;;;;;6.65;4.05;;;;;;;;;;4990875;28;20037;-64
2021/12/07 00:23:09;;;;;;;6.28;3.58;;;;;;;;;;4989326;28;20030;-66
2021/12/07 00:25:55;;;;;;;8.40;4.45;;;;;;;;;;4974646;28;20041;-66
2021/12/07 00:28:40;;;;;;;7.38;4.13;;;;;;;;;;4992085;28;20029;-68
2021/12/07 00:31:30;;;;;;;6.93;3.50;;;;;;;;;;4984918;28;20083;-66
2021/12/07 00:34:25;;;;;;;6.07;4.28;;;;;;;;;;4991106;28;20109;-67
2021/12/07 00:37:10;;;;;;;7.63;4.40;;;;;;;;;;4992979;28;20041;-66
2021/12/07 00:39:57;;;;;;;7.25;3.92;;;;;;;;;;4987778;28;20033;-63
2021/12/07 00:42:42;;;;;;;5.82;3.55;;;;;;;;;;4973409;28;20026;-63
2021/12/07 00:45:31;;;;;;;5.82;3.30;;;;;;;;;;4994550;28;20037;-63
2021/12/07 00:48:17;;;;;;;5.68;3.53;;;;;;;;;;4993298;28;20069;-63
2021/12/07 00:51:02;;;;;;;6.28;3.85;;;;;;;;;;4994460;28;20065;-64
2021/12/07 00:53:47;;;;;;;6.03;3.47;;;;;;;;;;4992291;28;20022;-64
2021/12/07 00:56:33;;;;;;;7.68;3.95;;;;;;;;;;4980739;28;20036;-63
2021/12/07 00:59:18;;;;;;;6.70;3.80;;;;;;;;;;4970443;28;20025;-70
2021/12/07 01:02:03;;;;;;;6.50;3.90;;;;;;;;;;4992292;28;20074;-66
2021/12/07 01:04:56;;;;;;;7.97;4.00;;;;;;;;;;4993937;28;20403;-66
2021/12/07 01:25:15;;;;;;;7.10;3.90;;;;;;;;;;5019106;28;20515;-70
2021/12/07 01:28:07;;;;;;;7.43;3.67;;;;;;;;;;4983854;28;20491;-72
2021/12/07 01:31:06;;;;;;;8.02;4.15;;;;;;;;;;5016276;28;20036;-71
2021/12/07 01:52:41;;;;;;;5.60;3.20;;;;;;;;;;5015047;28;20580;-65
2021/12/07 02:01:08;;;;;;;6.93;2.90;;;;;;;;;;5024666;28;20372;-65
2021/12/07 02:03:53;;;;;;;5.95;3.38;;;;;;;;;;5029457;28;20376;-71
2021/12/07 02:06:39;;;;;;;5.57;3.55;;;;;;;;;;5028398;28;20044;-72
2021/12/07 02:09:24;;;;;;;5.80;3.15;;;;;;;;;;5015941;28;20061;-73
2021/12/07 02:12:12;;;;;;;4.60;2.90;;;;;;;;;;5016800;28;20057;-70
2021/12/07 02:14:57;;;;;;;4.22;2.85;;;;;;;;;;4989149;28;20040;-71
2021/12/07 02:17:43;;;;;;;5.97;3.35;;;;;;;;;;4995258;28;20033;-70
2021/12/07 02:20:29;;;;;;;6.75;3.72;;;;;;;;;;5007640;28;20545;-69
2021/12/07 02:23:15;;;;;;;7.53;3.70;;;;;;;;;;5009986;28;20361;-63
2021/12/07 02:26:00;;;;;;;7.28;4.28;;;;;;;;;;5020619;28;20037;-73
2021/12/07 02:28:46;;;;;;;5.38;3.50;;;;;;;;;;5008914;28;20552;-71
2021/12/07 02:31:32;;;;;;;6.28;3.75;;;;;;;;;;4987420;28;20026;-71
2021/12/07 02:34:18;;;;;;;6.90;3.90;;;;;;;;;;5009639;28;20029;-71
2021/12/07 02:37:03;;;;;;;6.18;3.55;;;;;;;;;;5008985;28;20368;-72
2021/12/07 02:39:49;;;;;;;5.40;3.53;;;;;;;;;;5008461;28;20100;-69
2021/12/07 02:42:34;;;;;;;7.18;3.53;;;;;;;;;;4990681;28;20045;-70
2021/12/07 02:45:20;;;;;;;5.45;3.22;;;;;;;;;;4990466;28;20460;-69
2021/12/07 02:48:06;;;;;;;5.97;3.13;;;;;;;;;;5007454;28;20029;-71
2021/12/07 02:50:51;;;;;;;7.30;3.33;;;;;;;;;;5008632;28;20033;-73
2021/12/07 02:53:36;;;;;;;4.90;2.95;;;;;;;;;;5013690;28;20052;-72
2021/12/07 02:56:22;;;;;;;4.85;3.20;;;;;;;;;;5009409;28;20033;-72
2021/12/07 02:59:07;;;;;;;4.82;3.25;;;;;;;;;;5000299;28;20033;-71
2021/12/07 03:02:03;;;;;;;5.63;3.00;;;;;;;;;;5007790;28;20084;-68
2021/12/07 03:05:04;;;;;;;3.45;2.35;;;;;;;;;;4991980;28;20030;-71
2021/12/07 03:26:10;;;;;;;2.45;1.90;;;;;;;;;;5002828;28;20113;-65
2021/12/07 03:28:58;;;;;;;3.47;1.70;;;;;;;;;;5006213;28;20365;-65
2021/12/07 03:31:44;;;;;;;3.33;1.80;;;;;;;;;;4999425;28;20041;-66
2021/12/07 03:34:29;;;;;;;4.47;2.00;;;;;;;;;;5003238;28;20527;-70
2021/12/07 03:37:14;;;;;;;4.22;2.33;;;;;;;;;;4994479;28;20390;-67
2021/12/07 03:40:00;;;;;;;3.53;2.33;;;;;;;;;;4987834;28;20057;-65
2021/12/07 03:42:45;;;;;;;3.42;2.00;;;;;;;;;;4994202;28;20120;-66
2021/12/07 03:45:34;;;;;;;5.07;2.38;;;;;;;;;;5007580;28;20066;-66
2021/12/07 03:48:19;;;;;;;2.42;1.73;;;;;;;;;;5002356;28;20038;-67
2021/12/07 03:51:04;;;;;;;3.42;2.03;;;;;;;;;;5006118;28;20034;-66
2021/12/07 03:53:50;;;;;;;2.90;1.88;;;;;;;;;;5007156;28;20030;-70
2021/12/07 03:56:35;;;;;;;5.88;1.98;;;;;;;;;;5008450;28;20034;-70
2021/12/07 03:59:20;;;;;;;3.22;1.75;;;;;;;;;;5004067;28;20080;-70
2021/12/07 04:02:07;;;;;;;1.65;1.40;;;;;;;;;;4995204;28;20033;-72
2021/12/07 04:04:59;;;;;;;2.83;1.70;;;;;;;;;;5009016;28;20037;-71
2021/12/07 04:07:45;;;;;;;3.67;1.70;;;;;;;;;;5007997;28;20033;-69
2021/12/07 04:10:30;;;;;;;2.28;1.80;;;;;;;;;;5007907;28;20056;-70
2021/12/07 04:13:15;;;;;;;2.22;1.63;;;;;;;;;;4997484;28;20387;-65
2021/12/07 04:16:01;;;;;;;2.67;1.58;;;;;;;;;;4995763;28;20038;-70
2021/12/07 04:18:46;;;;;;;4.10;1.67;;;;;;;;;;4997427;28;20561;-70
2021/12/07 04:21:31;;;;;;;2.28;1.55;;;;;;;;;;5002012;28;20045;-70
2021/12/07 04:24:17;;;;;;;3.28;2.10;;;;;;;;;;4995613;28;20384;-70
2021/12/07 04:27:02;;;;;;;6.63;2.60;;;;;;;;;;5008126;28;20505;-72
2021/12/07 04:29:48;;;;;;;6.63;2.20;;;;;;;;;;5010720;28;20066;-72
2021/12/07 04:32:33;;;;;;;3.95;2.35;;;;;;;;;;5010649;28;20053;-72
2021/12/07 04:35:19;;;;;;;5.72;2.20;;;;;;;;;;5018829;28;20045;-70
2021/12/07 04:38:04;;;;;;;6.50;2.05;;;;;;;;;;5005143;28;20520;-71
2021/12/07 04:40:49;;;;;;;4.55;2.08;;;;;;;;;;5007756;28;20169;-72
2021/12/07 04:43:36;;;;;;;4.47;2.20;;;;;;;;;;5011105;28;20037;-71
2021/12/07 04:46:31;;;;;;;2.92;2.10;;;;;;;;;;4996514;28;20033;-70
2021/12/07 04:58:26;;;;;;;4.65;2.20;;;;;;;;;;5009852;28;20046;-72
2021/12/07 05:01:11;;;;;;;3.30;1.80;;;;;;;;;;5011299;28;20466;-71
2021/12/07 05:04:00;;;;;;;11.55;5.22;;;;;;;;;;5011524;28;20029;-71
2021/12/07 05:06:49;;;;;;;10.52;4.85;;;;;;;;;;4996020;28;20033;-65
2021/12/07 05:10:22;;;;;;;8.23;4.93;;;;;;;;;;5010315;28;20596;-70
2021/12/07 05:13:21;;;;;;;4.10;2.15;;;;;;;;;;5021291;28;20041;-70
2021/12/07 05:25:32;;;;;;;9.38;3.25;;;;;;;;;;5019841;28;20030;-69
2021/12/07 05:40:19;;;;;;;3.47;1.77;;;;;;;;;;4998306;28;20113;-70
2021/12/07 05:43:05;;;;;;;8.55;2.38;;;;;;;;;;4997119;28;20044;-71
2021/12/07 05:45:50;;;;;;;4.93;1.55;;;;;;;;;;4996186;28;20396;-68
2021/12/07 05:48:35;;;;;;;4.22;1.65;;;;;;;;;;5009023;28;20141;-69
2021/12/07 05:51:21;;;;;;;8.10;3.22;;;;;;;;;;5010696;28;20108;-70
2021/12/07 05:54:06;;;;;;;5.85;1.88;;;;;;;;;;5012354;28;20036;-70
2021/12/07 05:56:51;;;;;;;6.28;2.25;;;;;;;;;;5010373;28;20088;-68
2021/12/07 05:59:36;;;;;;;5.93;1.65;;;;;;;;;;5009497;28;20037;-68
2021/12/07 06:02:22;;;;;;;7.32;1.98;;;;;;;;;;4997037;28;20034;-72
2021/12/07 06:05:07;;;;;;;9.73;2.25;;;;;;;;;;5001708;28;20530;-70
2021/12/07 06:07:52;;;;;;;9.52;2.75;;;;;;;;;;5009561;28;20029;-70
2021/12/07 06:10:38;;;;;;;6.25;2.33;;;;;;;;;;5008960;28;20666;-70
2021/12/07 06:13:23;;;;;;;8.82;2.60;;;;;;;;;;5009858;28;20040;-70
2021/12/07 06:16:09;;;;;;;11.00;2.75;;;;;;;;;;5007946;28;20026;-72
2021/12/07 06:18:54;;;;;;;9.15;3.05;;;;;;;;;;5008561;28;20088;-70
2021/12/07 06:21:39;;;;;;;7.65;2.83;;;;;;;;;;4988186;28;20033;-72
2021/12/07 06:24:25;;;;;;;4.97;2.60;;;;;;;;;;4989086;28;20026;-65
2021/12/07 06:27:10;;;;;;;9.48;2.80;;;;;;;;;;4990272;28;20293;-66
2021/12/07 06:29:57;;;;;;;7.70;2.70;;;;;;;;;;5007594;28;20060;-61
2021/12/07 06:32:42;;;;;;;12.98;2.58;;;;;;;;;;5009386;28;20038;-64
2021/12/07 06:35:28;;;;;;;8.20;2.13;;;;;;;;;;5006953;28;20076;-62
2021/12/07 06:38:13;;;;;;;8.90;2.80;;;;;;;;;;4994900;28;20722;-62
2021/12/07 06:40:59;;;;;;;37.95;20.50;;;;;;;;;;5007448;28;20113;-71
2021/12/07 06:43:44;;;;;;;32.30;16.67;;;;;;;;;;4995750;28;20396;-66
2021/12/07 06:46:30;;;;;;;8.57;3.78;;;;;;;;;;4986148;28;20408;-67
2021/12/07 06:49:16;;;;;;;8.40;3.03;;;;;;;;;;4974944;28;20377;-65
2021/12/07 06:52:03;;;;;;;12.40;2.78;;;;;;;;;;4993119;28;20044;-66
2021/12/07 06:54:48;;;;;;;8.20;3.20;;;;;;;;;;5017122;28;20439;-66
2021/12/07 06:57:34;;;;;;;9.43;3.58;;;;;;;;;;5003477;28;20424;-66
2021/12/07 07:00:19;;;;;;;9.10;3.25;;;;;;;;;;5009399;28;20030;-63
2021/12/07 07:03:05;;;;;;;10.15;2.40;;;;;;;;;;4988744;28;20034;-63
2021/12/07 07:05:50;;;;;;;8.88;2.60;;;;;;;;;;5005425;28;20492;-62
2021/12/07 07:08:36;;;;;;;9.07;3.15;;;;;;;;;;5008470;28;20049;-62
2021/12/07 07:11:22;;;;;;;7.85;2.75;;;;;;;;;;4992229;28;20381;-62
2021/12/07 07:14:07;;;;;;;11.77;2.83;;;;;;;;;;5014205;28;20030;-61
2021/12/07 07:16:52;;;;;;;10.80;3.20;;;;;;;;;;5006930;28;20658;-66
2021/12/07 07:19:38;;;;;;;7.28;2.88;;;;;;;;;;5012857;28;20048;-65
2021/12/07 07:22:23;;;;;;;10.85;3.10;;;;;;;;;;4999993;28;20169;-67
2021/12/07 07:25:09;;;;;;;9.73;2.90;;;;;;;;;;5004284;28;20053;-66
2021/12/07 07:27:54;;;;;;;7.88;2.88;;;;;;;;;;5004993;28;20034;-67
2021/12/07 07:30:39;;;;;;;6.57;2.33;;;;;;;;;;5009274;28;20041;-65
2021/12/07 07:33:24;;;;;;;10.05;2.78;;;;;;;;;;5006577;28;20029;-64
2021/12/07 07:36:10;;;;;;;22.95;12.13;;;;;;;;;;5010508;28;20030;-67
2021/12/07 07:38:55;;;;;;;13.88;5.85;;;;;;;;;;5000052;28;20534;-70
2021/12/07 07:41:40;;;;;;;10.95;4.03;;;;;;;;;;5007884;28;20032;-70
2021/12/07 07:44:26;;;;;;;13.10;5.18;;;;;;;;;;5006924;28;20026;-70
2021/12/07 07:47:11;;;;;;;9.65;4.45;;;;;;;;;;5009088;28;20111;-68
2021/12/07 07:49:56;;;;;;;10.35;4.50;;;;;;;;;;5009843;28;20048;-66
2021/12/07 07:52:42;;;;;;;13.35;5.18;;;;;;;;;;4991061;28;20037;-66
2021/12/07 07:55:27;;;;;;;8.73;3.53;;;;;;;;;;4998140;28;20476;-72
2021/12/07 07:58:13;;;;;;;11.38;3.58;;;;;;;;;;5011318;28;20237;-70
2021/12/07 08:00:58;;;;;;;13.32;2.92;;;;;;;;;;5010407;28;20026;-65
2021/12/07 08:03:43;;;;;;;10.25;4.25;;;;;;;;;;4996312;28;20085;-65
2021/12/07 08:06:29;;;;;;;9.98;3.72;;;;;;;;;;5015133;28;20081;-66
2021/12/07 08:09:15;;;;;;;8.90;2.22;;;;;;;;;;5010944;28;20032;-66
2021/12/07 08:12:00;;;;;;;6.65;1.98;;;;;;;;;;5011004;28;20794;-71
2021/12/07 08:14:46;;;;;;;5.00;2.05;;;;;;;;;;5004611;28;20025;-68
2021/12/07 08:17:31;;;;;;;8.85;2.13;;;;;;;;;;4993391;28;20058;-68
2021/12/07 08:20:17;;;;;;;28.38;13.10;;;;;;;;;;5010023;28;20041;-67
2021/12/07 08:23:04;;;;;;;5.93;2.05;;;;;;;;;;5010471;28;20550;-68
2021/12/07 08:25:49;;;;;;;6.60;1.98;;;;;;;;;;4989787;28;20041;-67
2021/12/07 08:28:35;;;;;;;8.95;2.13;;;;;;;;;;4990927;28;21450;-66
2021/12/07 08:31:20;;;;;;;6.47;1.75;;;;;;;;;;5014507;28;20026;-66
2021/12/07 08:34:05;;;;;;;8.48;1.85;;;;;;;;;;5011596;28;20591;-69
2021/12/07 08:36:51;;;;;;;9.98;2.38;;;;;;;;;;5009234;28;20045;-68
2021/12/07 08:39:37;;;;;;;8.48;2.10;;;;;;;;;;4983501;28;20038;-69
2021/12/07 08:42:22;;;;;;;7.22;2.28;;;;;;;;;;4995017;28;20052;-71
2021/12/07 08:45:08;;;;;;;8.05;2.22;;;;;;;;;;4991526;28;20030;-70
2021/12/07 08:47:54;;;;;;;8.68;2.08;;;;;;;;;;4991012;28;20025;-69
2021/12/07 08:50:41;;;;;;;14.70;5.55;;;;;;;;;;5011051;28;20046;-67
2021/12/07 08:53:27;;;;;;;7.47;3.22;;;;;;;;;;5014063;28;20178;-68
2021/12/07 09:02:40;;;;;;;7.97;2.55;;;;;;;;;;4955199;28;20641;-70
2021/12/07 09:05:26;;;;;;;9.65;2.88;;;;;;;;;;4931425;29;20067;-72
2021/12/07 09:08:11;;;;;;;7.70;1.75;;;;;;;;;;4932608;29;20137;-66
2021/12/07 09:10:56;;;;;;;10.32;2.42;;;;;;;;;;4935589;28;20094;-66
2021/12/07 09:13:42;;;;;;;7.63;1.55;;;;;;;;;;4952178;28;20306;-68
2021/12/07 09:16:27;;;;;;;9.13;2.20;;;;;;;;;;4949066;28;20636;-69
2021/12/07 09:19:13;;;;;;;6.88;2.17;;;;;;;;;;4931977;29;20054;-68
2021/12/07 09:21:58;;;;;;;8.02;2.33;;;;;;;;;;4949854;28;20026;-66
2021/12/07 09:24:43;;;;;;;10.60;2.42;;;;;;;;;;4938437;28;20034;-69
2021/12/07 09:27:29;;;;;;;5.72;1.95;;;;;;;;;;4923088;28;20086;-72
2021/12/07 09:30:15;;;;;;;8.77;2.00;;;;;;;;;;4940343;28;20039;-72
2021/12/07 09:33:00;;;;;;;9.10;2.50;;;;;;;;;;4968333;28;20133;-70
2021/12/07 09:35:46;;;;;;;18.23;9.32;;;;;;;;;;4994335;28;20468;-69
2021/12/07 09:38:31;;;;;;;11.43;2.90;;;;;;;;;;5005601;28;20522;-71
2021/12/07 09:41:18;;;;;;;8.48;1.77;;;;;;;;;;4996078;28;20048;-71
2021/12/07 09:44:04;;;;;;;9.73;2.30;;;;;;;;;;4991377;28;20021;-65
2021/12/07 09:46:50;;;;;;;8.38;1.95;;;;;;;;;;5008720;28;20054;-73
2021/12/07 09:49:35;;;;;;;9.50;1.98;;;;;;;;;;4980163;28;20117;-71
2021/12/07 09:52:20;;;;;;;7.85;2.08;;;;;;;;;;4979209;28;20038;-69
2021/12/07 09:55:06;;;;;;;8.43;2.28;;;;;;;;;;5002445;28;20185;-71
2021/12/07 09:57:52;;;;;;;11.45;2.80;;;;;;;;;;5005912;28;20488;-71
2021/12/07 10:00:38;;;;;;;10.68;2.63;;;;;;;;;;5010013;28;20030;-71
2021/12/07 10:03:24;;;;;;;7.40;1.63;;;;;;;;;;5004514;28;20513;-64
2021/12/07 10:06:09;;;;;;;5.32;1.50;;;;;;;;;;4989346;28;20046;-69
2021/12/07 10:08:54;;;;;;;9.07;2.22;;;;;;;;;;4992780;28;20037;-64
2021/12/07 10:11:40;;;;;;;8.48;1.92;;;;;;;;;;5008718;28;20034;-68
2021/12/07 10:14:35;;;;;;;8.02;1.63;;;;;;;;;;5008301;28;20034;-70
2021/12/07 10:17:23;;;;;;;9.38;2.85;;;;;;;;;;5016732;28;20037;-67
2021/12/07 10:20:38;;;;;;;9.02;2.33;;;;;;;;;;5004430;28;20033;-69
2021/12/07 10:23:26;;;;;;;12.38;2.03;;;;;;;;;;4995906;28;20069;-65
2021/12/07 10:26:14;;;;;;;7.22;1.67;;;;;;;;;;4994034;28;20033;-66
2021/12/07 10:29:10;;;;;;;6.13;2.20;;;;;;;;;;4993971;28;20089;-64
2021/12/07 10:32:01;;;;;;;5.32;1.67;;;;;;;;;;5004463;28;20148;-68
2021/12/07 10:34:47;;;;;;;7.15;1.77;;;;;;;;;;5007732;28;20029;-65
2021/12/07 10:37:32;;;;;;;8.90;1.88;;;;;;;;;;5009004;28;20037;-65
2021/12/07 10:40:17;;;;;;;10.32;1.90;;;;;;;;;;5008026;28;20091;-68
2021/12/07 10:43:02;;;;;;;8.18;1.85;;;;;;;;;;4983173;28;20287;-67
2021/12/07 10:45:48;;;;;;;5.60;1.85;;;;;;;;;;4993318;28;20487;-67
2021/12/07 10:48:33;;;;;;;9.75;2.05;;;;;;;;;;5008785;28;20033;-67
2021/12/07 10:51:18;;;;;;;5.60;1.60;;;;;;;;;;5003909;28;20121;-67
2021/12/07 10:54:04;;;;;;;6.45;1.77;;;;;;;;;;5008569;28;20388;-67
2021/12/07 10:56:53;;;;;;;10.32;3.25;;;;;;;;;;5007879;28;20029;-71
2021/12/07 10:59:38;;;;;;;4.88;1.67;;;;;;;;;;5008024;28;20026;-64
2021/12/07 11:02:24;;;;;;;4.15;1.38;;;;;;;;;;5004401;28;21587;-64
2021/12/07 11:05:11;;;;;;;9.73;2.03;;;;;;;;;;4994834;28;20624;-63
2021/12/07 11:07:58;;;;;;;5.00;1.85;;;;;;;;;;4989976;28;20559;-63
2021/12/07 11:10:47;;;;;;;4.57;1.30;;;;;;;;;;5003317;28;20113;-64
2021/12/07 11:13:37;;;;;;;7.68;1.70;;;;;;;;;;5004989;28;20245;-62
2021/12/07 11:16:22;;;;;;;7.40;2.17;;;;;;;;;;5002345;28;20049;-71
2021/12/07 11:19:19;;;;;;;4.63;1.60;;;;;;;;;;4995663;28;20033;-70
2021/12/07 11:22:04;;;;;;;8.77;1.80;;;;;;;;;;4992064;28;20025;-70
2021/12/07 11:24:51;;;;;;;7.30;1.45;;;;;;;;;;5009029;28;20072;-70
2021/12/07 11:30:49;;;;;;;7.82;5.45;;;;;;;;;;5007212;28;20041;-71
2021/12/07 11:33:34;;;;;;;6.70;1.38;;;;;;;;;;5004951;28;20038;-69
2021/12/07 11:36:27;;;;;;;7.55;1.65;;;;;;;;;;5006387;28;20056;-79
2021/12/07 11:39:22;;;;;;;5.88;1.27;;;;;;;;;;4994045;28;20044;-75
2021/12/07 11:42:09;;;;;;;5.38;1.55;;;;;;;;;;4993755;28;20089;-78
2021/12/07 11:44:57;;;;;;;5.93;1.77;;;;;;;;;;4995810;28;20485;-73
2021/12/07 11:47:44;;;;;;;5.63;1.40;;;;;;;;;;5007611;28;20109;-76
2021/12/07 11:50:38;;;;;;;9.23;2.47;;;;;;;;;;5008248;28;20121;-75
2021/12/07 11:53:23;;;;;;;4.38;1.85;;;;;;;;;;4993570;28;20025;-75
2021/12/07 11:56:09;;;;;;;13.48;1.98;;;;;;;;;;5006398;28;20042;-70
2021/12/07 11:58:54;;;;;;;5.25;1.55;;;;;;;;;;5004722;28;20041;-70
2021/12/07 12:01:40;;;;;;;6.85;1.75;;;;;;;;;;5006798;28;20057;-67
2021/12/07 12:04:25;;;;;;;6.43;2.08;;;;;;;;;;4992258;28;20034;-66
2021/12/07 12:07:11;;;;;;;9.15;1.73;;;;;;;;;;4993129;28;20155;-66
2021/12/07 12:09:56;;;;;;;7.70;1.98;;;;;;;;;;5009375;28;20100;-63
2021/12/07 12:13:17;;;;;;;9.35;2.90;;;;;;;;;;5007672;28;20026;-65
2021/12/07 12:16:02;;;;;;;7.55;2.22;;;;;;;;;;4917876;29;20031;-63
2021/12/07 12:18:57;;;;;;;7.70;1.95;;;;;;;;;;4990899;28;20037;-63
2021/12/07 12:22:01;;;;;;;4.50;1.40;;;;;;;;;;4990153;28;20185;-64
2021/12/07 12:24:54;;;;;;;8.80;2.40;;;;;;;;;;4988342;28;20113;-68
2021/12/07 12:27:40;;;;;;;5.43;2.08;;;;;;;;;;5003280;28;20092;-64
2021/12/07 12:30:25;;;;;;;6.63;1.50;;;;;;;;;;5003168;28;20107;-71
2021/12/07 12:33:12;;;;;;;8.05;1.90;;;;;;;;;;4994371;28;20095;-67
2021/12/07 12:35:59;;;;;;;4.90;1.77;;;;;;;;;;4993786;28;20431;-66
2021/12/07 12:39:04;;;;;;;5.35;1.65;;;;;;;;;;5008062;28;20042;-69
2021/12/07 12:41:59;;;;;;;5.80;1.40;;;;;;;;;;5009298;28;20116;-66
2021/12/07 12:44:45;;;;;;;5.45;1.60;;;;;;;;;;4992652;28;20052;-67
2021/12/07 12:47:31;;;;;;;8.20;2.00;;;;;;;;;;5006947;28;20083;-67
2021/12/07 12:50:18;;;;;;;7.03;2.10;;;;;;;;;;5002110;28;20675;-73
2021/12/07 12:53:05;;;;;;;8.00;1.52;;;;;;;;;;5006380;28;20033;-68
2021/12/07 12:55:51;;;;;;;5.50;1.50;;;;;;;;;;5005931;28;20092;-71
2021/12/07 12:58:39;;;;;;;7.00;1.98;;;;;;;;;;4993972;28;20022;-70
2021/12/07 13:01:28;;;;;;;6.93;1.88;;;;;;;;;;5007095;28;20117;-70
2021/12/07 13:04:21;;;;;;;3.80;1.50;;;;;;;;;;4994245;28;20029;-69
2021/12/07 13:09:57;;;;;;;4.53;1.27;;;;;;;;;;5007927;28;20034;-69
2021/12/07 13:12:43;;;;;;;5.82;1.70;;;;;;;;;;5006680;28;20626;-67
2021/12/07 13:15:34;;;;;;;6.30;1.30;;;;;;;;;;5005999;28;20207;-67
2021/12/07 13:18:20;;;;;;;6.18;1.63;;;;;;;;;;5007171;28;20026;-69
2021/12/07 13:21:32;;;;;;;7.40;1.85;;;;;;;;;;5006092;28;20033;-70
2021/12/07 13:24:33;;;;;;;7.28;1.70;;;;;;;;;;4993003;28;20033;-63
2021/12/07 13:27:19;;;;;;;5.70;1.73;;;;;;;;;;4992077;28;20033;-67
2021/12/07 13:30:06;;;;;;;37.53;22.88;;;;;;;;;;4992289;28;20477;-67
2021/12/07 13:33:02;;;;;;;11.48;2.95;;;;;;;;;;5008019;28;20033;-66
2021/12/07 13:35:48;;;;;;;10.02;2.50;;;;;;;;;;5010595;28;20113;-67
2021/12/07 13:38:33;;;;;;;9.07;2.28;;;;;;;;;;5017201;28;20049;-67
2021/12/07 13:41:20;;;;;;;6.93;1.60;;;;;;;;;;5011610;28;20389;-67
2021/12/07 13:44:08;;;;;;;6.63;1.52;;;;;;;;;;5009879;28;20046;-67
2021/12/07 13:46:55;;;;;;;4.82;1.42;;;;;;;;;;4998217;28;20783;-63
2021/12/07 13:49:42;;;;;;;7.63;2.28;;;;;;;;;;5008969;28;20390;-63
2021/12/07 13:52:32;;;;;;;5.72;1.60;;;;;;;;;;5008276;28;20385;-63
2021/12/07 13:55:17;;;;;;;;;;;;;;;;;;5010527;28;20091;-65
2021/12/07 13:58:03;;;;;;;9.18;1.70;;;;;;;;;;5009686;28;19910;-65
2021/12/07 14:00:48;;;;;;;6.60;1.90;;;;;;;;;;5005666;28;20057;-65
2021/12/07 14:03:40;;;;;;;6.40;1.77;;;;;;;;;;4996571;28;20057;-71
2021/12/07 14:06:26;;;;;;;3.97;1.50;;;;;;;;;;5004953;28;20030;-69
2021/12/07 14:09:11;;;;;;;4.25;1.30;;;;;;;;;;4988454;28;20026;-68
2021/12/07 14:11:58;;;;;;;6.97;1.45;;;;;;;;;;5007930;28;20040;-69
2021/12/07 14:14:43;;;;;;;7.75;2.03;;;;;;;;;;4989438;28;20026;-69
2021/12/07 14:17:42;;;;;;;6.18;2.50;;;;;;;;;;5008840;28;20836;-70
2021/12/07 14:20:27;;;;;;;32.10;17.27;;;;;;;;;;5003990;28;20034;-72
2021/12/07 14:23:15;;;;;;;16.38;8.00;;;;;;;;;;5016803;28;20751;-64
2021/12/07 14:26:06;;;;;;;6.28;2.20;;;;;;;;;;5002614;28;20499;-62
2021/12/07 14:28:52;;;;;;;6.75;1.65;;;;;;;;;;5007398;28;20026;-62
2021/12/07 14:31:48;;;;;;;6.55;2.30;;;;;;;;;;5019371;28;20026;-63
2021/12/07 14:34:33;;;;;;;4.15;1.50;;;;;;;;;;4998642;28;20424;-65
2021/12/07 14:37:19;;;;;;;9.93;2.47;;;;;;;;;;5008424;28;20021;-71
2021/12/07 14:40:05;;;;;;;6.68;1.60;;;;;;;;;;5008060;28;20041;-70
2021/12/07 14:42:51;;;;;;;4.15;1.85;;;;;;;;;;5018118;28;20457;-70
2021/12/07 14:45:37;;;;;;;3.85;1.55;;;;;;;;;;5000140;28;20025;-66
2021/12/07 14:48:22;;;;;;;5.00;1.50;;;;;;;;;;5009034;28;20511;-66
2021/12/07 14:51:10;;;;;;;5.18;1.48;;;;;;;;;;5006398;28;20037;-71
2021/12/07 14:53:56;;;;;;;6.00;1.50;;;;;;;;;;5008958;28;20022;-69
2021/12/07 14:56:41;;;;;;;9.88;1.85;;;;;;;;;;5008476;28;20141;-69
2021/12/07 14:59:27;;;;;;;5.00;1.70;;;;;;;;;;5007541;28;20044;-61
2021/12/07 15:02:12;;;;;;;8.13;2.00;;;;;;;;;;5014326;28;20507;-63
2021/12/07 15:04:58;;;;;;;7.32;2.47;;;;;;;;;;5007203;28;20100;-63
2021/12/07 15:07:44;;;;;;;9.80;2.00;;;;;;;;;;4997621;28;20034;-64
2021/12/07 15:10:29;;;;;;;8.85;1.80;;;;;;;;;;5009694;28;20048;-62
2021/12/07 15:13:14;;;;;;;7.70;1.90;;;;;;;;;;5010399;28;20347;-64
2021/12/07 15:16:01;;;;;;;13.40;2.22;;;;;;;;;;5006440;28;20107;-69
2021/12/07 15:18:48;;;;;;;9.38;1.65;;;;;;;;;;4992073;28;20030;-67
2021/12/07 15:21:35;;;;;;;10.82;2.50;;;;;;;;;;5007643;28;20030;-68
2021/12/07 15:24:25;;;;;;;8.90;2.40;;;;;;;;;;5006744;28;20030;-70
2021/12/07 15:27:10;;;;;;;9.93;2.20;;;;;;;;;;5006022;28;20030;-69
2021/12/07 15:29:56;;;;;;;8.05;2.35;;;;;;;;;;5007296;28;20040;-67
2021/12/07 15:32:41;;;;;;;9.38;2.78;;;;;;;;;;5000353;28;20029;-72
2021/12/07 15:35:27;;;;;;;7.97;2.50;;;;;;;;;;5007841;28;20045;-66
2021/12/07 15:38:19;;;;;;;10.27;2.60;;;;;;;;;;5007737;28;20033;-68
2021/12/07 15:41:04;;;;;;;6.85;2.60;;;;;;;;;;5002213;28;20040;-67
2021/12/07 15:43:50;;;;;;;6.60;1.75;;;;;;;;;;5002051;28;20352;-67
2021/12/07 15:46:43;;;;;;;9.70;2.03;;;;;;;;;;5007949;28;20406;-66
2021/12/07 15:49:30;;;;;;;7.55;2.08;;;;;;;;;;5007294;28;20444;-66
2021/12/07 15:52:16;;;;;;;89.85;55.83;;;;;;;;;;5006647;28;20509;-68
2021/12/07 15:55:04;;;;;;;10.75;4.68;;;;;;;;;;5008211;28;20083;-67
2021/12/07 15:57:51;;;;;;;10.02;2.50;;;;;;;;;;5006708;28;20617;-66
2021/12/07 16:00:46;;;;;;;11.70;2.67;;;;;;;;;;5015608;28;20029;-68
2021/12/07 16:03:32;;;;;;;8.27;2.65;;;;;;;;;;4998719;28;20033;-67
2021/12/07 16:06:23;;;;;;;9.60;3.08;;;;;;;;;;4998919;28;20590;-67
2021/12/07 16:09:16;;;;;;;6.97;2.08;;;;;;;;;;5022087;28;20476;-73
2021/12/07 16:12:12;;;;;;;12.52;2.40;;;;;;;;;;4997977;28;20072;-70
2021/12/07 16:15:11;;;;;;;11.07;2.42;;;;;;;;;;4981948;28;20030;-71
2021/12/07 16:17:57;;;;;;;9.85;4.38;;;;;;;;;;4997243;28;20056;-71
2021/12/07 16:20:43;;;;;;;6.30;2.58;;;;;;;;;;5004615;28;20077;-70
2021/12/07 16:23:29;;;;;;;12.65;2.95;;;;;;;;;;4976759;28;20124;-69
2021/12/07 16:26:15;;;;;;;11.10;2.80;;;;;;;;;;5002519;28;20062;-71
2021/12/07 16:29:00;;;;;;;9.00;2.25;;;;;;;;;;5012988;28;20492;-69
2021/12/07 16:31:46;;;;;;;9.00;3.00;;;;;;;;;;4989494;28;20485;-67
2021/12/07 16:34:32;;;;;;;10.73;2.95;;;;;;;;;;4996098;28;20453;-63
2021/12/07 16:37:17;;;;;;;10.15;4.40;;;;;;;;;;5003529;28;20100;-63
2021/12/07 16:40:04;;;;;;;18.15;10.07;;;;;;;;;;5007462;28;20059;-64
2021/12/07 16:42:50;;;;;;;17.42;4.18;;;;;;;;;;5009422;28;20717;-65
2021/12/07 16:45:38;;;;;;;9.98;3.22;;;;;;;;;;4995697;28;20033;-64
2021/12/07 16:48:23;;;;;;;10.93;3.85;;;;;;;;;;5006939;28;20503;-68
2021/12/07 16:51:09;;;;;;;10.98;4.15;;;;;;;;;;4993381;28;20080;-73
2021/12/07 16:53:54;;;;;;;9.70;3.63;;;;;;;;;;5012605;28;20033;-68
2021/12/07 16:56:40;;;;;;;11.60;3.50;;;;;;;;;;4981161;28;20026;-71
2021/12/07 16:59:25;;;;;;;11.02;3.97;;;;;;;;;;4991242;28;20038;-69
2021/12/07 17:02:10;;;;;;;19.73;8.75;;;;;;;;;;5011063;28;20040;-68
2021/12/07 17:04:57;;;;;;;15.55;5.15;;;;;;;;;;5006682;28;20031;-77
2021/12/07 17:07:42;;;;;;;12.30;4.22;;;;;;;;;;5005196;28;20065;-68
2021/12/07 17:10:27;;;;;;;12.57;4.30;;;;;;;;;;5004611;28;20104;-62
2021/12/07 17:13:13;;;;;;;17.17;6.40;;;;;;;;;;5004591;28;20431;-61
2021/12/07 17:15:59;;;;;;;12.73;4.30;;;;;;;;;;4998123;28;20092;-64
2021/12/07 17:18:44;;;;;;;13.32;5.20;;;;;;;;;;5010786;28;20040;-62
2021/12/07 17:21:29;;;;;;;14.35;4.20;;;;;;;;;;5008668;28;20473;-65
2021/12/07 17:24:16;;;;;;;11.18;3.67;;;;;;;;;;4973803;28;20034;-67
2021/12/07 17:27:02;;;;;;;13.48;3.92;;;;;;;;;;5009373;28;20777;-71
2021/12/07 17:29:47;;;;;;;10.05;3.47;;;;;;;;;;5010957;28;20370;-68
2021/12/07 17:32:32;;;;;;;9.60;3.65;;;;;;;;;;5009591;28;20038;-68
2021/12/07 17:35:18;;;;;;;9.70;3.28;;;;;;;;;;4993594;28;20065;-69
2021/12/07 17:38:03;;;;;;;16.83;3.97;;;;;;;;;;4999837;28;20030;-67
2021/12/07 17:40:50;;;;;;;15.52;4.15;;;;;;;;;;5012959;28;20031;-71
2021/12/07 17:43:36;;;;;;;10.38;4.13;;;;;;;;;;5002612;28;20041;-68
2021/12/07 17:46:21;;;;;;;13.75;5.50;;;;;;;;;;5009014;28;20038;-67
2021/12/07 17:49:08;;;;;;;9.82;4.00;;;;;;;;;;5012000;28;20034;-66
2021/12/07 17:51:55;;;;;;;14.63;4.38;;;;;;;;;;5002773;28;20068;-66
2021/12/07 17:54:40;;;;;;;8.35;4.05;;;;;;;;;;5009668;28;20041;-66
2021/12/07 17:57:26;;;;;;;13.90;4.45;;;;;;;;;;5009298;28;20069;-65
2021/12/07 18:00:13;;;;;;;11.30;4.85;;;;;;;;;;5010303;28;20369;-64
2021/12/07 18:02:58;;;;;;;17.17;4.95;;;;;;;;;;4986458;28;20166;-70
2021/12/07 18:05:44;;;;;;;9.55;4.63;;;;;;;;;;4997035;28;20059;-67
2021/12/07 18:08:29;;;;;;;16.33;6.72;;;;;;;;;;4981617;28;20034;-70
2021/12/07 18:11:16;;;;;;;18.45;8.40;;;;;;;;;;5007618;28;20076;-67
2021/12/07 18:14:01;;;;;;;15.10;5.95;;;;;;;;;;5006946;28;20038;-68
2021/12/07 18:16:49;;;;;;;11.00;5.28;;;;;;;;;;5010076;28;20655;-69
2021/12/07 18:19:34;;;;;;;12.00;4.57;;;;;;;;;;4990798;28;20041;-66
2021/12/07 18:22:20;;;;;;;12.38;5.63;;;;;;;;;;5007874;28;20425;-66